Scroll down
FLIGHT INFORMATION
SAS Scandinavian Airlines

SAS1407

At Arrival Gate

ESSA
 EKCH
DATE: 2020-02-20
GATE: 34
GATE DEPARTURE: 14:25
TAKEOFF: 14:42
DATE: 2020-02-20
GATE:  -
LANDING: 15:43
GATE ARRIVAL: 15:54
FLIGHT DATA
Crew: BIG SWEDE
Speed: 450 kts Altitude: 36000 ft
Stage Length: 295 nm
Route: 
Block Time:  -  Flight Time:  -
Fuel Used: 7235 LB
TRACK DATA
50000 FT1000 KT
AIRCRAFT INFO AND CUMULATIVE STATS
Aircraft Type: B738
Registration: LN-RCN
SELCAL:  MSN/LN: 28318 / 529
Operator: SAS SCANDINAVIAN AIRLINES
Total Flights: 19 
Total Block Time: 40.1 Total Flight Time: 35.3
Total Fuel Used: 218628 LB
DATALINK LOG | Newest first | Current as of: 2020-10-23 07:58:14
LABEL SEQUENCE CONTENT Dn/Up
QD553015:54 8.5▼ Dn
QC431715:43▼ Dn
2U0627EKCH 201450Z 19019G30KT 4800 -DZRA BR FEW003 OVC005 05/05 Q1008 TEMPO 6000 NSW▲ Up
2S0320EKCH▼ Dn
2U0526EKCH 201450Z 19019G30KT 4800 -DZRA BR FEW003 OVC005 05/05 Q1008 TEMPO 6000 NSW▲ Up
2S0209EKCH▼ Dn
QB434514:42▼ Dn
QA250214:25 15.8▼ Dn
A30228CLEARED TO EKCH VIA DKR5G DKR N872 ERNOV ERNO1C. SQUAWK 7727.▲ Up
B35906ESSA EKCH SAS1407 SAS M ▼ Dn
A30026CLEARED TO EKCH VIA DKR5G DKR N872 ERNOV ERNO1C. SQUAWK 5661.▲ Up
B35738ESSA EKCH SAS1407 SAS M ▼ Dn
A35934CLEARED TO EKCH VIA DKR5G DKR N872 ERNOV ERNO1C. SQUAWK 7454.▲ Up
B35738ESSA EKCH SAS1407 SAS M ▼ Dn
2U3939ESSA 201320Z 21013KT 9999 BKN021 03/M01 Q1008 R01L/09//95 R08/09//95 R01R/09//95 NOSIG▲ Up
2S3723ESSA▼ Dn
Q03838[LINK ACK]▲ Up
Q03602[LINK TEST]▼ Dn


AIRCRAFT HISTORY
FLIGHT DATE FLIGHT NO. ORIGIN DESTINATION ROUTE BLOCK TIME FLIGHT TIME FUEL USED (LB) PILOT
2020-10-20SAS9029ESGG ESSA ESGG LABAN DETSO PELIT TORVA ARS ELTOK ESSA10.74298Anton Vind
2020-10-19SAS7514GCLP ESGG GCLP VASTO SULAM BAROK SUNES SOTEX EVURA BIRBA PORTA RODAP BABOV BARDI ZMR NUBLO RONSI DELOG DESAB TEPRA NORMI MOKOR OLEBA BAKUL ARDOD OBATO RONAX SORAP DITAL EVX PODEM BAZOS SOMIL BELDI VEKIN ADUTO FERDI HELEN TOLEN JUIST NIRDU CORIS WELGO LEGPI TUSKA GOTEX LOBBI ESGG5.14.928569Anton Vind
2020-10-19SAS7513ESGG GCLP ESGG VADIN TUSKA CIV MEDIL PITHI LESDO KOVIN DUCRA RESMI DEKOD DISAK ARKIP ARNAV LMG UVELI OSMOB ARVID PPN NOLSA ALEPO VASUM GARVU BANEV BAN GOTOR KAMPO MONTO MOLIN HIJ SVL CLANA KORNO ABODA IBALU ERMED TOVRA VEDOD TERTO GCLP5.85.631708Anton Vind
2020-10-19SAS9028ESSA ESGG ESSA ARS BEDLA TABUT DEPEX LAPSI MOXAM ESGG10.74312Anton Vind
2020-10-12SAS9078ENGM ESSA ENGM MASEV LEGPO MILNU ARGIB ELTOK ESSA10.74359Anton Vind
2020-10-07SAS7544LGSA ENGM LGSA SOKRI IXIMA EKTOS VELOP SKP BAMOS AGISA AMSIV LEKPO TSL MAKED LONTA UDVAR PARAK AMRAX BILNA SOPAV REGLI EPOPA SOGPI DEVEG NUDRO ARMEX XIDNA ADVAB GINOK RONEX MIRVO VIBUL BABEN KOLOB ROE NILEN LALIL SABAK XENTA REGMA LUNIP ENGM4.13.823286Anton Vind
2020-10-07SAS7543ESSD LGSA ESSD BOR PERAX ELTOK TRS APZER DISRU ROGMI VSB GELDA GARSO AGONA TURIP REPMI KRD RUTAM GITOV KEFIR ROBTU KENIN NARKA NEPOT LAMIT TITEK NULGO OSTOV INBOL LUKOV ROVAM PENEV BLO LARAT DILVO OTKOK NIKTI LASBU VAMKO PEREN SKP SIGFO ROPOX ATV MANOK LGSA4.23.924815Anton Vind
2020-10-07SAS9227ESSA ESSD ESSA KOGAV PERAX ESSD0.70.53867Anton Vind
2020-09-24SAS35ESNU ESSA ESNU DEDIT SIPRI HMR ESSA1.20.95875Big Swede
2020-08-07SAS25ESNQ ESNU ESNQ TERPA KETEL ESNU10.86146Big Swede
2020-07-30SAS1044ESSA ESNQ ESSA SA551 SA564 SA709 SA710 SA855 LUMAX RESNA OSK RASEN REKMI OSKIR ITVAV VAGAS NQ704 NQ703 RW031.81.49293Big Swede
2020-06-27SAS414EKCH ESSA EKCH KEMAX NEXIL ROXEN DEKIK VEPIP BEDOS NEFYN MIKNA PELUP NILUG ESSA1.316605Big Swede
2020-02-20SAS1407ESSA EKCH 1.517235Big Swede
2020-01-24SAS1045ESNQ ESSA 1.81.47391Big Swede
2019-12-07SAS1207ENGM ESNQ 1.71.59123Douglas Morlan
2019-11-14SAS4431ENTC ENGM 2.5212569Kyle Rodgers
2019-11-14SAS4425ENSB ENTC 1.71.49089Kyle Rodgers
2019-11-14SAS4414ENTC ENSB 1.71.59499Kyle Rodgers
2019-11-14SAS4406ENGM ENTC 21.610589Kyle Rodgers